sensor_id;sensor_type;location;lat;lon;timestamp;P1;durP1;ratioP1;P2;durP2;ratioP2
66970;SDS011;53901;51.466;-2.588;2022-07-29T00:00:41;9.13;;;3.53;;
66970;SDS011;53901;51.466;-2.588;2022-07-29T00:03:09;7.50;;;3.33;;
66970;SDS011;53901;51.466;-2.588;2022-07-29T00:05:35;7.82;;;3.60;;
66970;SDS011;53901;51.466;-2.588;2022-07-29T00:08:01;7.18;;;3.72;;
66970;SDS011;53901;51.466;-2.588;2022-07-29T00:10:27;11.07;;;3.95;;
66970;SDS011;53901;51.466;-2.588;2022-07-29T00:12:52;12.30;;;3.95;;
66970;SDS011;53901;51.466;-2.588;2022-07-29T00:15:18;15.70;;;3.80;;
66970;SDS011;53901;51.466;-2.588;2022-07-29T00:17:44;7.82;;;3.63;;
66970;SDS011;53901;51.466;-2.588;2022-07-29T00:20:09;7.68;;;3.90;;
66970;SDS011;53901;51.466;-2.588;2022-07-29T00:22:37;11.32;;;3.67;;
66970;SDS011;53901;51.466;-2.588;2022-07-29T00:25:03;7.75;;;3.63;;
66970;SDS011;53901;51.466;-2.588;2022-07-29T00:27:29;7.32;;;3.70;;
66970;SDS011;53901;51.466;-2.588;2022-07-29T00:29:54;8.07;;;3.75;;
66970;SDS011;53901;51.466;-2.588;2022-07-29T00:32:20;7.85;;;3.50;;
66970;SDS011;53901;51.466;-2.588;2022-07-29T00:34:45;5.57;;;3.42;;
66970;SDS011;53901;51.466;-2.588;2022-07-29T00:37:29;9.05;;;3.33;;
66970;SDS011;53901;51.466;-2.588;2022-07-29T00:39:54;6.25;;;3.35;;
66970;SDS011;53901;51.466;-2.588;2022-07-29T00:42:20;7.80;;;3.90;;
66970;SDS011;53901;51.466;-2.588;2022-07-29T00:44:45;6.82;;;3.60;;
66970;SDS011;53901;51.466;-2.588;2022-07-29T00:47:11;7.45;;;3.80;;
66970;SDS011;53901;51.466;-2.588;2022-07-29T00:49:38;9.32;;;4.00;;
66970;SDS011;53901;51.466;-2.588;2022-07-29T00:52:04;11.38;;;3.83;;
66970;SDS011;53901;51.466;-2.588;2022-07-29T00:54:30;8.95;;;3.65;;
66970;SDS011;53901;51.466;-2.588;2022-07-29T00:57:00;9.52;;;3.67;;
66970;SDS011;53901;51.466;-2.588;2022-07-29T00:59:26;9.13;;;4.00;;
66970;SDS011;53901;51.466;-2.588;2022-07-29T01:01:52;9.38;;;3.70;;
66970;SDS011;53901;51.466;-2.588;2022-07-29T01:04:18;8.60;;;4.00;;
66970;SDS011;53901;51.466;-2.588;2022-07-29T01:06:45;8.07;;;3.53;;
66970;SDS011;53901;51.466;-2.588;2022-07-29T01:09:10;8.70;;;4.00;;
66970;SDS011;53901;51.466;-2.588;2022-07-29T01:11:36;7.75;;;3.47;;
66970;SDS011;53901;51.466;-2.588;2022-07-29T01:14:06;9.00;;;3.85;;
66970;SDS011;53901;51.466;-2.588;2022-07-29T01:16:37;7.45;;;3.55;;
66970;SDS011;53901;51.466;-2.588;2022-07-29T01:19:58;7.63;;;3.75;;
66970;SDS011;53901;51.466;-2.588;2022-07-29T01:24:52;9.27;;;4.18;;
66970;SDS011;53901;51.466;-2.588;2022-07-29T01:30:18;5.90;;;3.60;;
66970;SDS011;53901;51.466;-2.588;2022-07-29T01:32:47;10.73;;;4.05;;
66970;SDS011;53901;51.466;-2.588;2022-07-29T01:35:20;7.95;;;3.90;;
66970;SDS011;53901;51.466;-2.588;2022-07-29T01:40:22;8.10;;;3.70;;
66970;SDS011;53901;51.466;-2.588;2022-07-29T01:42:50;9.07;;;4.20;;
66970;SDS011;53901;51.466;-2.588;2022-07-29T01:45:28;9.48;;;3.90;;
66970;SDS011;53901;51.466;-2.588;2022-07-29T01:50:46;12.10;;;4.13;;
66970;SDS011;53901;51.466;-2.588;2022-07-29T01:53:13;10.63;;;3.83;;
66970;SDS011;53901;51.466;-2.588;2022-07-29T01:55:42;8.05;;;3.95;;
66970;SDS011;53901;51.466;-2.588;2022-07-29T01:58:09;9.52;;;3.97;;
66970;SDS011;53901;51.466;-2.588;2022-07-29T02:00:36;6.85;;;3.92;;
66970;SDS011;53901;51.466;-2.588;2022-07-29T02:03:02;7.75;;;3.78;;
66970;SDS011;53901;51.466;-2.588;2022-07-29T02:05:31;7.95;;;3.83;;
66970;SDS011;53901;51.466;-2.588;2022-07-29T02:07:58;10.10;;;4.18;;
66970;SDS011;53901;51.466;-2.588;2022-07-29T02:10:26;8.50;;;4.30;;
66970;SDS011;53901;51.466;-2.588;2022-07-29T02:12:53;8.57;;;4.00;;
66970;SDS011;53901;51.466;-2.588;2022-07-29T02:15:19;9.52;;;4.10;;
66970;SDS011;53901;51.466;-2.588;2022-07-29T02:17:56;9.02;;;3.80;;
66970;SDS011;53901;51.466;-2.588;2022-07-29T02:20:24;7.57;;;3.72;;
66970;SDS011;53901;51.466;-2.588;2022-07-29T02:22:54;9.70;;;4.03;;
66970;SDS011;53901;51.466;-2.588;2022-07-29T02:25:24;5.70;;;3.80;;
66970;SDS011;53901;51.466;-2.588;2022-07-29T02:27:52;9.18;;;4.07;;
66970;SDS011;53901;51.466;-2.588;2022-07-29T02:30:18;7.50;;;4.20;;
66970;SDS011;53901;51.466;-2.588;2022-07-29T02:32:45;8.35;;;4.03;;
66970;SDS011;53901;51.466;-2.588;2022-07-29T02:35:12;7.72;;;4.00;;
66970;SDS011;53901;51.466;-2.588;2022-07-29T02:37:39;6.32;;;3.75;;
66970;SDS011;53901;51.466;-2.588;2022-07-29T02:40:05;11.18;;;4.20;;
66970;SDS011;53901;51.466;-2.588;2022-07-29T02:42:34;8.15;;;4.45;;
66970;SDS011;53901;51.466;-2.588;2022-07-29T02:45:01;7.75;;;3.83;;
66970;SDS011;53901;51.466;-2.588;2022-07-29T02:50:09;8.85;;;4.32;;
66970;SDS011;53901;51.466;-2.588;2022-07-29T02:52:39;10.57;;;4.20;;
66970;SDS011;53901;51.466;-2.588;2022-07-29T02:57:46;8.07;;;4.10;;
66970;SDS011;53901;51.466;-2.588;2022-07-29T03:00:13;8.98;;;4.35;;
66970;SDS011;53901;51.466;-2.588;2022-07-29T03:02:40;8.88;;;4.43;;
66970;SDS011;53901;51.466;-2.588;2022-07-29T03:05:09;9.20;;;4.18;;
66970;SDS011;53901;51.466;-2.588;2022-07-29T03:07:37;6.90;;;4.15;;
66970;SDS011;53901;51.466;-2.588;2022-07-29T03:10:03;10.85;;;3.92;;
66970;SDS011;53901;51.466;-2.588;2022-07-29T03:12:29;14.10;;;4.60;;
66970;SDS011;53901;51.466;-2.588;2022-07-29T03:14:55;10.23;;;4.13;;
66970;SDS011;53901;51.466;-2.588;2022-07-29T03:17:21;9.63;;;4.40;;
66970;SDS011;53901;51.466;-2.588;2022-07-29T03:19:47;9.00;;;4.32;;
66970;SDS011;53901;51.466;-2.588;2022-07-29T03:22:13;7.38;;;4.00;;
66970;SDS011;53901;51.466;-2.588;2022-07-29T03:24:38;7.07;;;4.28;;
66970;SDS011;53901;51.466;-2.588;2022-07-29T03:27:04;9.02;;;4.30;;
66970;SDS011;53901;51.466;-2.588;2022-07-29T03:29:30;14.93;;;4.70;;
66970;SDS011;53901;51.466;-2.588;2022-07-29T03:31:56;7.55;;;4.35;;
66970;SDS011;53901;51.466;-2.588;2022-07-29T03:34:21;12.02;;;5.00;;
66970;SDS011;53901;51.466;-2.588;2022-07-29T03:36:47;11.38;;;4.88;;
66970;SDS011;53901;51.466;-2.588;2022-07-29T03:39:14;9.05;;;4.65;;
66970;SDS011;53901;51.466;-2.588;2022-07-29T03:41:42;15.55;;;4.40;;
66970;SDS011;53901;51.466;-2.588;2022-07-29T03:44:09;8.00;;;4.55;;
66970;SDS011;53901;51.466;-2.588;2022-07-29T03:46:35;7.57;;;4.18;;
66970;SDS011;53901;51.466;-2.588;2022-07-29T03:49:01;8.52;;;4.70;;
66970;SDS011;53901;51.466;-2.588;2022-07-29T03:51:28;9.68;;;4.00;;
66970;SDS011;53901;51.466;-2.588;2022-07-29T03:53:54;8.73;;;4.35;;
66970;SDS011;53901;51.466;-2.588;2022-07-29T03:56:21;8.45;;;4.20;;
66970;SDS011;53901;51.466;-2.588;2022-07-29T03:58:47;7.10;;;4.20;;
66970;SDS011;53901;51.466;-2.588;2022-07-29T04:01:16;14.50;;;4.65;;
66970;SDS011;53901;51.466;-2.588;2022-07-29T04:03:43;8.88;;;4.82;;
66970;SDS011;53901;51.466;-2.588;2022-07-29T04:06:10;8.23;;;4.57;;
66970;SDS011;53901;51.466;-2.588;2022-07-29T04:08:36;8.45;;;4.40;;
66970;SDS011;53901;51.466;-2.588;2022-07-29T04:11:02;8.18;;;4.93;;
66970;SDS011;53901;51.466;-2.588;2022-07-29T04:13:28;8.75;;;4.97;;
66970;SDS011;53901;51.466;-2.588;2022-07-29T04:15:54;9.57;;;4.47;;
66970;SDS011;53901;51.466;-2.588;2022-07-29T04:18:19;10.55;;;4.63;;
66970;SDS011;53901;51.466;-2.588;2022-07-29T04:20:45;8.65;;;4.38;;
66970;SDS011;53901;51.466;-2.588;2022-07-29T04:23:10;12.85;;;5.00;;
66970;SDS011;53901;51.466;-2.588;2022-07-29T04:25:39;9.82;;;5.10;;
66970;SDS011;53901;51.466;-2.588;2022-07-29T04:28:05;9.05;;;4.85;;
66970;SDS011;53901;51.466;-2.588;2022-07-29T04:30:32;9.48;;;4.75;;
66970;SDS011;53901;51.466;-2.588;2022-07-29T04:32:58;8.15;;;5.00;;
66970;SDS011;53901;51.466;-2.588;2022-07-29T04:35:33;14.50;;;5.50;;
66970;SDS011;53901;51.466;-2.588;2022-07-29T04:37:59;10.68;;;5.05;;
66970;SDS011;53901;51.466;-2.588;2022-07-29T04:40:25;9.68;;;4.80;;
66970;SDS011;53901;51.466;-2.588;2022-07-29T04:42:50;7.70;;;4.90;;
66970;SDS011;53901;51.466;-2.588;2022-07-29T04:45:16;12.27;;;5.35;;
66970;SDS011;53901;51.466;-2.588;2022-07-29T04:47:42;9.48;;;4.93;;
66970;SDS011;53901;51.466;-2.588;2022-07-29T04:50:08;9.55;;;4.70;;
66970;SDS011;53901;51.466;-2.588;2022-07-29T04:52:34;11.07;;;4.95;;
66970;SDS011;53901;51.466;-2.588;2022-07-29T04:55:02;10.48;;;5.10;;
66970;SDS011;53901;51.466;-2.588;2022-07-29T04:57:29;7.53;;;4.63;;
66970;SDS011;53901;51.466;-2.588;2022-07-29T04:59:54;8.05;;;4.88;;
66970;SDS011;53901;51.466;-2.588;2022-07-29T05:02:19;10.75;;;4.97;;
66970;SDS011;53901;51.466;-2.588;2022-07-29T05:04:45;8.55;;;4.68;;
66970;SDS011;53901;51.466;-2.588;2022-07-29T05:07:10;7.97;;;5.03;;
66970;SDS011;53901;51.466;-2.588;2022-07-29T05:09:36;8.65;;;5.00;;
66970;SDS011;53901;51.466;-2.588;2022-07-29T05:12:01;7.68;;;5.07;;
66970;SDS011;53901;51.466;-2.588;2022-07-29T05:14:27;11.50;;;4.88;;
66970;SDS011;53901;51.466;-2.588;2022-07-29T05:16:52;9.95;;;4.60;;
66970;SDS011;53901;51.466;-2.588;2022-07-29T05:19:21;8.35;;;5.00;;
66970;SDS011;53901;51.466;-2.588;2022-07-29T05:21:47;10.38;;;4.88;;
66970;SDS011;53901;51.466;-2.588;2022-07-29T05:24:12;12.02;;;4.90;;
66970;SDS011;53901;51.466;-2.588;2022-07-29T05:26:38;13.68;;;5.10;;
66970;SDS011;53901;51.466;-2.588;2022-07-29T05:29:04;8.45;;;5.10;;
66970;SDS011;53901;51.466;-2.588;2022-07-29T05:31:29;12.82;;;4.75;;
66970;SDS011;53901;51.466;-2.588;2022-07-29T05:33:54;9.50;;;5.10;;
66970;SDS011;53901;51.466;-2.588;2022-07-29T05:36:20;9.05;;;5.20;;
66970;SDS011;53901;51.466;-2.588;2022-07-29T05:38:45;9.75;;;4.78;;
66970;SDS011;53901;51.466;-2.588;2022-07-29T05:41:11;17.33;;;5.20;;
66970;SDS011;53901;51.466;-2.588;2022-07-29T05:43:36;8.35;;;4.97;;
66970;SDS011;53901;51.466;-2.588;2022-07-29T05:46:01;9.18;;;4.60;;
66970;SDS011;53901;51.466;-2.588;2022-07-29T05:48:27;9.05;;;4.55;;
66970;SDS011;53901;51.466;-2.588;2022-07-29T05:50:52;11.02;;;4.50;;
66970;SDS011;53901;51.466;-2.588;2022-07-29T05:53:18;10.18;;;4.95;;
66970;SDS011;53901;51.466;-2.588;2022-07-29T05:55:44;17.65;;;5.20;;
66970;SDS011;53901;51.466;-2.588;2022-07-29T05:58:09;9.05;;;4.60;;
66970;SDS011;53901;51.466;-2.588;2022-07-29T06:00:35;10.75;;;5.10;;
66970;SDS011;53901;51.466;-2.588;2022-07-29T06:03:00;15.75;;;5.20;;
66970;SDS011;53901;51.466;-2.588;2022-07-29T06:05:26;10.00;;;5.25;;
66970;SDS011;53901;51.466;-2.588;2022-07-29T06:07:51;10.02;;;6.22;;
66970;SDS011;53901;51.466;-2.588;2022-07-29T06:10:17;10.55;;;5.55;;
66970;SDS011;53901;51.466;-2.588;2022-07-29T06:12:43;12.55;;;5.30;;
66970;SDS011;53901;51.466;-2.588;2022-07-29T06:15:09;9.38;;;5.18;;
66970;SDS011;53901;51.466;-2.588;2022-07-29T06:17:34;12.27;;;5.55;;
66970;SDS011;53901;51.466;-2.588;2022-07-29T06:20:00;7.97;;;4.97;;
66970;SDS011;53901;51.466;-2.588;2022-07-29T06:22:28;7.45;;;5.20;;
66970;SDS011;53901;51.466;-2.588;2022-07-29T06:24:54;10.25;;;5.72;;
66970;SDS011;53901;51.466;-2.588;2022-07-29T06:27:20;14.70;;;6.55;;
66970;SDS011;53901;51.466;-2.588;2022-07-29T06:29:45;12.93;;;5.60;;
66970;SDS011;53901;51.466;-2.588;2022-07-29T06:32:11;33.42;;;6.57;;
66970;SDS011;53901;51.466;-2.588;2022-07-29T06:34:36;10.48;;;5.53;;
66970;SDS011;53901;51.466;-2.588;2022-07-29T06:37:08;12.23;;;5.00;;
66970;SDS011;53901;51.466;-2.588;2022-07-29T06:39:34;7.90;;;4.40;;
66970;SDS011;53901;51.466;-2.588;2022-07-29T06:42:01;21.92;;;5.85;;
66970;SDS011;53901;51.466;-2.588;2022-07-29T06:44:27;7.90;;;3.80;;
66970;SDS011;53901;51.466;-2.588;2022-07-29T06:46:52;11.55;;;3.75;;
66970;SDS011;53901;51.466;-2.588;2022-07-29T06:49:19;10.55;;;3.92;;
66970;SDS011;53901;51.466;-2.588;2022-07-29T06:51:45;8.40;;;3.50;;
66970;SDS011;53901;51.466;-2.588;2022-07-29T06:54:10;6.78;;;3.50;;
66970;SDS011;53901;51.466;-2.588;2022-07-29T06:56:36;9.43;;;3.00;;
66970;SDS011;53901;51.466;-2.588;2022-07-29T06:59:02;8.10;;;2.95;;
66970;SDS011;53901;51.466;-2.588;2022-07-29T07:01:28;6.18;;;2.80;;
66970;SDS011;53901;51.466;-2.588;2022-07-29T07:03:53;14.88;;;2.97;;
66970;SDS011;53901;51.466;-2.588;2022-07-29T07:06:19;11.23;;;3.05;;
66970;SDS011;53901;51.466;-2.588;2022-07-29T07:08:54;7.32;;;2.83;;
66970;SDS011;53901;51.466;-2.588;2022-07-29T07:11:28;9.35;;;3.25;;
66970;SDS011;53901;51.466;-2.588;2022-07-29T07:13:54;8.18;;;3.00;;
66970;SDS011;53901;51.466;-2.588;2022-07-29T07:16:19;10.30;;;2.75;;
66970;SDS011;53901;51.466;-2.588;2022-07-29T07:18:45;8.48;;;2.63;;
66970;SDS011;53901;51.466;-2.588;2022-07-29T07:21:11;9.02;;;2.40;;
66970;SDS011;53901;51.466;-2.588;2022-07-29T07:23:36;10.85;;;4.68;;
66970;SDS011;53901;51.466;-2.588;2022-07-29T07:26:02;6.15;;;2.28;;
66970;SDS011;53901;51.466;-2.588;2022-07-29T07:28:28;12.65;;;2.70;;
66970;SDS011;53901;51.466;-2.588;2022-07-29T07:30:54;12.48;;;2.40;;
66970;SDS011;53901;51.466;-2.588;2022-07-29T07:33:19;8.18;;;2.50;;
66970;SDS011;53901;51.466;-2.588;2022-07-29T07:35:45;5.97;;;2.28;;
66970;SDS011;53901;51.466;-2.588;2022-07-29T07:38:11;6.22;;;2.20;;
66970;SDS011;53901;51.466;-2.588;2022-07-29T07:40:36;8.88;;;2.30;;
66970;SDS011;53901;51.466;-2.588;2022-07-29T07:43:02;5.53;;;2.17;;
66970;SDS011;53901;51.466;-2.588;2022-07-29T07:45:27;5.40;;;2.28;;
66970;SDS011;53901;51.466;-2.588;2022-07-29T07:47:53;8.00;;;2.30;;
66970;SDS011;53901;51.466;-2.588;2022-07-29T07:50:18;7.85;;;1.90;;
66970;SDS011;53901;51.466;-2.588;2022-07-29T07:52:48;5.30;;;2.15;;
66970;SDS011;53901;51.466;-2.588;2022-07-29T07:55:15;7.47;;;2.17;;
66970;SDS011;53901;51.466;-2.588;2022-07-29T07:57:41;7.30;;;2.08;;
66970;SDS011;53901;51.466;-2.588;2022-07-29T08:00:06;8.02;;;2.15;;
66970;SDS011;53901;51.466;-2.588;2022-07-29T08:02:32;7.88;;;2.33;;
66970;SDS011;53901;51.466;-2.588;2022-07-29T08:04:58;7.82;;;2.08;;
66970;SDS011;53901;51.466;-2.588;2022-07-29T08:07:24;8.68;;;2.30;;
66970;SDS011;53901;51.466;-2.588;2022-07-29T08:09:49;5.53;;;1.98;;
66970;SDS011;53901;51.466;-2.588;2022-07-29T08:12:15;9.85;;;2.10;;
66970;SDS011;53901;51.466;-2.588;2022-07-29T08:14:40;6.68;;;1.80;;
66970;SDS011;53901;51.466;-2.588;2022-07-29T08:17:06;10.18;;;2.05;;
66970;SDS011;53901;51.466;-2.588;2022-07-29T08:19:31;4.18;;;2.13;;
66970;SDS011;53901;51.466;-2.588;2022-07-29T08:21:57;4.30;;;1.95;;
66970;SDS011;53901;51.466;-2.588;2022-07-29T08:24:22;5.35;;;1.92;;
66970;SDS011;53901;51.466;-2.588;2022-07-29T08:27:08;6.83;;;1.90;;
66970;SDS011;53901;51.466;-2.588;2022-07-29T08:29:37;11.45;;;2.83;;
66970;SDS011;53901;51.466;-2.588;2022-07-29T08:32:04;4.53;;;2.00;;
66970;SDS011;53901;51.466;-2.588;2022-07-29T08:34:30;4.72;;;1.83;;
66970;SDS011;53901;51.466;-2.588;2022-07-29T08:36:57;5.82;;;2.10;;
66970;SDS011;53901;51.466;-2.588;2022-07-29T08:39:23;5.63;;;2.17;;
66970;SDS011;53901;51.466;-2.588;2022-07-29T08:41:49;10.45;;;2.38;;
66970;SDS011;53901;51.466;-2.588;2022-07-29T08:44:16;7.13;;;1.88;;
66970;SDS011;53901;51.466;-2.588;2022-07-29T08:46:46;7.65;;;2.05;;
66970;SDS011;53901;51.466;-2.588;2022-07-29T08:49:12;8.35;;;2.15;;
66970;SDS011;53901;51.466;-2.588;2022-07-29T08:51:39;5.03;;;2.20;;
66970;SDS011;53901;51.466;-2.588;2022-07-29T08:54:05;7.57;;;2.53;;
66970;SDS011;53901;51.466;-2.588;2022-07-29T08:56:30;6.43;;;2.00;;
66970;SDS011;53901;51.466;-2.588;2022-07-29T08:58:57;7.95;;;2.70;;
66970;SDS011;53901;51.466;-2.588;2022-07-29T09:01:24;11.13;;;2.38;;
66970;SDS011;53901;51.466;-2.588;2022-07-29T09:03:50;6.65;;;2.25;;
66970;SDS011;53901;51.466;-2.588;2022-07-29T09:06:19;5.22;;;2.03;;
66970;SDS011;53901;51.466;-2.588;2022-07-29T09:08:46;7.28;;;2.33;;
66970;SDS011;53901;51.466;-2.588;2022-07-29T09:11:12;6.00;;;2.13;;
66970;SDS011;53901;51.466;-2.588;2022-07-29T09:13:38;5.07;;;2.30;;
66970;SDS011;53901;51.466;-2.588;2022-07-29T09:16:04;7.82;;;2.35;;
66970;SDS011;53901;51.466;-2.588;2022-07-29T09:18:40;6.07;;;1.98;;
66970;SDS011;53901;51.466;-2.588;2022-07-29T09:21:07;26.75;;;4.32;;
66970;SDS011;53901;51.466;-2.588;2022-07-29T09:24:10;4.68;;;2.13;;
66970;SDS011;53901;51.466;-2.588;2022-07-29T09:26:40;8.73;;;2.33;;
66970;SDS011;53901;51.466;-2.588;2022-07-29T09:29:15;8.10;;;2.17;;
66970;SDS011;53901;51.466;-2.588;2022-07-29T09:31:42;4.63;;;1.83;;
66970;SDS011;53901;51.466;-2.588;2022-07-29T09:34:16;4.82;;;1.95;;
66970;SDS011;53901;51.466;-2.588;2022-07-29T09:36:49;7.85;;;2.38;;
66970;SDS011;53901;51.466;-2.588;2022-07-29T09:39:15;6.85;;;2.33;;
66970;SDS011;53901;51.466;-2.588;2022-07-29T09:42:03;8.07;;;2.20;;
66970;SDS011;53901;51.466;-2.588;2022-07-29T09:44:42;8.88;;;2.13;;
66970;SDS011;53901;51.466;-2.588;2022-07-29T09:47:09;10.38;;;2.13;;
66970;SDS011;53901;51.466;-2.588;2022-07-29T09:49:35;11.15;;;1.85;;
66970;SDS011;53901;51.466;-2.588;2022-07-29T09:52:15;7.32;;;2.00;;
66970;SDS011;53901;51.466;-2.588;2022-07-29T09:54:41;5.43;;;2.10;;
66970;SDS011;53901;51.466;-2.588;2022-07-29T09:57:22;8.38;;;2.65;;
66970;SDS011;53901;51.466;-2.588;2022-07-29T09:59:58;11.82;;;1.92;;
66970;SDS011;53901;51.466;-2.588;2022-07-29T10:02:32;10.32;;;2.35;;
66970;SDS011;53901;51.466;-2.588;2022-07-29T10:04:59;16.40;;;9.18;;
66970;SDS011;53901;51.466;-2.588;2022-07-29T10:07:26;6.00;;;2.10;;
66970;SDS011;53901;51.466;-2.588;2022-07-29T10:09:52;5.85;;;2.20;;
66970;SDS011;53901;51.466;-2.588;2022-07-29T10:12:19;5.68;;;1.80;;
66970;SDS011;53901;51.466;-2.588;2022-07-29T10:14:45;8.90;;;2.20;;
66970;SDS011;53901;51.466;-2.588;2022-07-29T10:17:10;4.28;;;2.10;;
66970;SDS011;53901;51.466;-2.588;2022-07-29T10:19:38;9.75;;;2.10;;
66970;SDS011;53901;51.466;-2.588;2022-07-29T10:22:06;7.40;;;3.42;;
66970;SDS011;53901;51.466;-2.588;2022-07-29T10:24:32;7.28;;;2.15;;
66970;SDS011;53901;51.466;-2.588;2022-07-29T10:26:59;6.80;;;1.92;;
66970;SDS011;53901;51.466;-2.588;2022-07-29T10:29:28;11.68;;;2.47;;
66970;SDS011;53901;51.466;-2.588;2022-07-29T10:40:26;7.95;;;2.33;;
66970;SDS011;53901;51.466;-2.588;2022-07-29T10:43:27;8.98;;;2.00;;
66970;SDS011;53901;51.466;-2.588;2022-07-29T10:46:01;5.57;;;2.13;;
66970;SDS011;53901;51.466;-2.588;2022-07-29T10:48:27;5.35;;;1.95;;
66970;SDS011;53901;51.466;-2.588;2022-07-29T10:56:23;5.45;;;1.77;;
66970;SDS011;53901;51.466;-2.588;2022-07-29T10:59:38;4.07;;;1.52;;
66970;SDS011;53901;51.466;-2.588;2022-07-29T11:02:46;6.82;;;2.17;;
66970;SDS011;53901;51.466;-2.588;2022-07-29T11:07:31;6.55;;;1.92;;
66970;SDS011;53901;51.466;-2.588;2022-07-29T11:15:06;6.93;;;1.90;;
66970;SDS011;53901;51.466;-2.588;2022-07-29T11:20:36;3.90;;;1.63;;
66970;SDS011;53901;51.466;-2.588;2022-07-29T11:31:19;10.48;;;1.90;;
66970;SDS011;53901;51.466;-2.588;2022-07-29T11:34:15;4.85;;;1.70;;
66970;SDS011;53901;51.466;-2.588;2022-07-29T11:47:35;9.60;;;1.80;;
66970;SDS011;53901;51.466;-2.588;2022-07-29T11:50:11;9.48;;;1.90;;
66970;SDS011;53901;51.466;-2.588;2022-07-29T11:52:42;9.60;;;2.08;;
66970;SDS011;53901;51.466;-2.588;2022-07-29T11:55:15;3.85;;;1.90;;
66970;SDS011;53901;51.466;-2.588;2022-07-29T11:57:49;14.95;;;1.92;;
66970;SDS011;53901;51.466;-2.588;2022-07-29T12:00:28;8.25;;;1.90;;
66970;SDS011;53901;51.466;-2.588;2022-07-29T12:03:02;5.93;;;1.67;;
66970;SDS011;53901;51.466;-2.588;2022-07-29T12:05:37;13.15;;;1.70;;
66970;SDS011;53901;51.466;-2.588;2022-07-29T12:08:07;3.75;;;1.40;;
66970;SDS011;53901;51.466;-2.588;2022-07-29T12:10:37;6.57;;;1.73;;
66970;SDS011;53901;51.466;-2.588;2022-07-29T12:13:03;6.93;;;1.80;;
66970;SDS011;53901;51.466;-2.588;2022-07-29T12:15:29;5.63;;;1.77;;
66970;SDS011;53901;51.466;-2.588;2022-07-29T12:17:55;5.20;;;1.60;;
66970;SDS011;53901;51.466;-2.588;2022-07-29T12:20:27;5.00;;;1.85;;
66970;SDS011;53901;51.466;-2.588;2022-07-29T12:22:54;3.03;;;1.50;;
66970;SDS011;53901;51.466;-2.588;2022-07-29T12:25:21;6.65;;;1.75;;
66970;SDS011;53901;51.466;-2.588;2022-07-29T12:28:01;6.68;;;1.80;;
66970;SDS011;53901;51.466;-2.588;2022-07-29T12:30:39;6.25;;;1.50;;
66970;SDS011;53901;51.466;-2.588;2022-07-29T12:35:39;12.38;;;1.73;;
66970;SDS011;53901;51.466;-2.588;2022-07-29T12:38:05;5.93;;;1.75;;
66970;SDS011;53901;51.466;-2.588;2022-07-29T12:40:30;3.67;;;1.65;;
66970;SDS011;53901;51.466;-2.588;2022-07-29T12:43:09;5.10;;;1.70;;
66970;SDS011;53901;51.466;-2.588;2022-07-29T12:45:37;4.85;;;1.75;;
66970;SDS011;53901;51.466;-2.588;2022-07-29T12:48:03;3.30;;;1.42;;
66970;SDS011;53901;51.466;-2.588;2022-07-29T12:50:30;6.38;;;1.60;;
66970;SDS011;53901;51.466;-2.588;2022-07-29T12:53:07;7.80;;;1.80;;
66970;SDS011;53901;51.466;-2.588;2022-07-29T12:55:37;3.83;;;1.40;;
66970;SDS011;53901;51.466;-2.588;2022-07-29T12:58:26;5.00;;;1.63;;
66970;SDS011;53901;51.466;-2.588;2022-07-29T13:01:00;3.80;;;1.38;;
66970;SDS011;53901;51.466;-2.588;2022-07-29T13:03:49;4.45;;;1.35;;
66970;SDS011;53901;51.466;-2.588;2022-07-29T13:13:54;5.90;;;1.55;;
66970;SDS011;53901;51.466;-2.588;2022-07-29T13:16:19;4.90;;;1.20;;
66970;SDS011;53901;51.466;-2.588;2022-07-29T13:18:44;4.88;;;1.60;;
66970;SDS011;53901;51.466;-2.588;2022-07-29T13:21:11;6.03;;;1.50;;
66970;SDS011;53901;51.466;-2.588;2022-07-29T13:23:37;5.32;;;1.38;;
66970;SDS011;53901;51.466;-2.588;2022-07-29T13:26:06;5.10;;;1.33;;
66970;SDS011;53901;51.466;-2.588;2022-07-29T13:28:36;5.18;;;1.55;;
66970;SDS011;53901;51.466;-2.588;2022-07-29T13:31:01;6.03;;;1.35;;
66970;SDS011;53901;51.466;-2.588;2022-07-29T13:33:27;10.00;;;1.90;;
66970;SDS011;53901;51.466;-2.588;2022-07-29T13:35:52;10.43;;;2.08;;
66970;SDS011;53901;51.466;-2.588;2022-07-29T13:38:18;5.65;;;1.55;;
66970;SDS011;53901;51.466;-2.588;2022-07-29T13:40:43;8.18;;;1.75;;
66970;SDS011;53901;51.466;-2.588;2022-07-29T13:43:09;8.65;;;1.60;;
66970;SDS011;53901;51.466;-2.588;2022-07-29T13:45:35;7.43;;;1.55;;
66970;SDS011;53901;51.466;-2.588;2022-07-29T13:48:00;4.82;;;1.63;;
66970;SDS011;53901;51.466;-2.588;2022-07-29T13:50:26;7.40;;;1.33;;
66970;SDS011;53901;51.466;-2.588;2022-07-29T13:52:51;8.13;;;1.70;;
66970;SDS011;53901;51.466;-2.588;2022-07-29T13:55:17;3.97;;;1.60;;
66970;SDS011;53901;51.466;-2.588;2022-07-29T13:57:43;5.18;;;1.42;;
66970;SDS011;53901;51.466;-2.588;2022-07-29T14:00:09;5.72;;;1.55;;
66970;SDS011;53901;51.466;-2.588;2022-07-29T14:02:35;5.15;;;1.67;;
66970;SDS011;53901;51.466;-2.588;2022-07-29T14:05:02;5.68;;;1.42;;
66970;SDS011;53901;51.466;-2.588;2022-07-29T14:07:28;5.88;;;1.50;;
66970;SDS011;53901;51.466;-2.588;2022-07-29T14:09:53;4.28;;;1.50;;
66970;SDS011;53901;51.466;-2.588;2022-07-29T14:12:19;4.10;;;1.48;;
66970;SDS011;53901;51.466;-2.588;2022-07-29T14:14:44;4.30;;;1.67;;
66970;SDS011;53901;51.466;-2.588;2022-07-29T14:17:10;5.65;;;1.50;;
66970;SDS011;53901;51.466;-2.588;2022-07-29T14:19:35;4.82;;;1.33;;
66970;SDS011;53901;51.466;-2.588;2022-07-29T14:22:03;5.50;;;1.60;;
66970;SDS011;53901;51.466;-2.588;2022-07-29T14:24:29;3.05;;;1.33;;
66970;SDS011;53901;51.466;-2.588;2022-07-29T14:26:55;6.68;;;1.52;;
66970;SDS011;53901;51.466;-2.588;2022-07-29T14:29:21;7.22;;;1.40;;
66970;SDS011;53901;51.466;-2.588;2022-07-29T14:31:46;3.13;;;1.30;;
66970;SDS011;53901;51.466;-2.588;2022-07-29T14:34:12;4.38;;;1.60;;
66970;SDS011;53901;51.466;-2.588;2022-07-29T14:36:37;6.63;;;1.70;;
66970;SDS011;53901;51.466;-2.588;2022-07-29T14:39:02;4.53;;;1.88;;
66970;SDS011;53901;51.466;-2.588;2022-07-29T14:41:28;5.80;;;1.77;;
66970;SDS011;53901;51.466;-2.588;2022-07-29T14:43:54;4.75;;;1.90;;
66970;SDS011;53901;51.466;-2.588;2022-07-29T14:46:20;5.57;;;1.65;;
66970;SDS011;53901;51.466;-2.588;2022-07-29T14:48:45;6.78;;;1.80;;
66970;SDS011;53901;51.466;-2.588;2022-07-29T14:51:11;7.80;;;1.85;;
66970;SDS011;53901;51.466;-2.588;2022-07-29T14:53:36;5.75;;;2.03;;
66970;SDS011;53901;51.466;-2.588;2022-07-29T14:56:02;7.25;;;3.10;;
66970;SDS011;53901;51.466;-2.588;2022-07-29T14:58:27;7.88;;;1.63;;
66970;SDS011;53901;51.466;-2.588;2022-07-29T15:00:53;5.10;;;2.00;;
66970;SDS011;53901;51.466;-2.588;2022-07-29T15:03:20;5.85;;;1.77;;
66970;SDS011;53901;51.466;-2.588;2022-07-29T15:05:46;4.72;;;2.00;;
66970;SDS011;53901;51.466;-2.588;2022-07-29T15:08:11;5.82;;;2.08;;
66970;SDS011;53901;51.466;-2.588;2022-07-29T15:10:36;4.95;;;2.10;;
66970;SDS011;53901;51.466;-2.588;2022-07-29T15:13:02;7.72;;;2.13;;
66970;SDS011;53901;51.466;-2.588;2022-07-29T15:15:28;7.45;;;1.90;;
66970;SDS011;53901;51.466;-2.588;2022-07-29T15:17:53;9.40;;;2.03;;
66970;SDS011;53901;51.466;-2.588;2022-07-29T15:20:19;4.72;;;2.00;;
66970;SDS011;53901;51.466;-2.588;2022-07-29T15:22:44;6.90;;;2.28;;
66970;SDS011;53901;51.466;-2.588;2022-07-29T15:25:10;6.03;;;1.92;;
66970;SDS011;53901;51.466;-2.588;2022-07-29T15:27:35;4.35;;;1.88;;
66970;SDS011;53901;51.466;-2.588;2022-07-29T15:30:01;8.57;;;1.98;;
66970;SDS011;53901;51.466;-2.588;2022-07-29T15:32:26;6.28;;;2.00;;
66970;SDS011;53901;51.466;-2.588;2022-07-29T15:34:52;4.20;;;1.70;;
66970;SDS011;53901;51.466;-2.588;2022-07-29T15:37:17;5.75;;;2.28;;
66970;SDS011;53901;51.466;-2.588;2022-07-29T15:39:43;6.10;;;1.98;;
66970;SDS011;53901;51.466;-2.588;2022-07-29T15:42:08;5.47;;;2.00;;
66970;SDS011;53901;51.466;-2.588;2022-07-29T15:44:39;5.60;;;1.63;;